Braden, Tennessee
Current Conditions -  °F | °C
As of 10:50 PM on Friday 28 Nov 2014 (Local Time) from KNQA Reporting Station
Clear Clear  
Wind Chill: 40°   Ceiling: Unl
Heat Index: 45°   Visibility: 10mi
Dew Point: 28°   Wind: 8mph
Humidity: 53%   Direction: 140°SE
Pressure: 30.08"   Gusts: NA
Location:  35.38°N, 89.57°W
Report Text: KNQA 290450Z 14007KT 10SM SKC 07/M02 A3008
Loading
Personal Weather Stations






























Interactive Weather Map New forecast layout! Learn more

10-Day Weather Forecast

Advertisements
Track Severe Weather on mobile